createdAt,value
2019-06-10T00:00:43.541Z,10.40
2019-06-10T00:03:15.594Z,10.45
2019-06-10T00:05:48.780Z,10.03
2019-06-10T00:08:21.053Z,9.45
2019-06-10T00:11:08.004Z,10.65
2019-06-10T00:13:41.488Z,10.23
2019-06-10T00:16:14.607Z,9.88
2019-06-10T00:18:46.691Z,10.95
2019-06-10T00:21:18.768Z,9.63
2019-06-10T00:23:51.833Z,9.90
2019-06-10T00:26:24.109Z,9.20
2019-06-10T00:28:56.307Z,9.35
2019-06-10T00:31:28.517Z,9.05
2019-06-10T00:34:02.972Z,8.73
2019-06-10T00:36:34.406Z,8.98
2019-06-10T00:39:08.944Z,9.25
2019-06-10T00:41:42.844Z,8.10
2019-06-10T00:46:51.429Z,8.75
2019-06-10T00:49:22.710Z,8.90
2019-06-10T00:51:54.800Z,9.38
2019-06-10T00:54:26.885Z,8.33
2019-06-10T00:57:01.176Z,8.23
2019-06-10T00:59:32.846Z,8.10
2019-06-10T01:02:06.376Z,8.18
2019-06-10T01:04:40.727Z,8.48
2019-06-10T01:07:14.778Z,8.95
2019-06-10T01:09:46.559Z,8.25
2019-06-10T01:12:20.976Z,8.30
2019-06-10T01:14:52.609Z,7.90
2019-06-10T01:17:24.748Z,8.15
2019-06-10T01:19:58.020Z,7.97
2019-06-10T01:22:31.591Z,9.20
2019-06-10T01:25:05.202Z,8.90
2019-06-10T01:27:37.561Z,7.70
2019-06-10T01:30:17.987Z,8.20
2019-06-10T01:32:43.500Z,8.30
2019-06-10T01:35:16.164Z,8.38
2019-06-10T01:37:51.882Z,16.20
2019-06-10T01:40:23.444Z,15.50
2019-06-10T01:42:55.602Z,9.35
2019-06-10T01:45:27.665Z,12.55
2019-06-10T01:48:01.425Z,11.93
2019-06-10T01:50:33.770Z,9.18
2019-06-10T01:53:07.276Z,8.55
2019-06-10T01:55:41.498Z,8.35
2019-06-10T01:58:16.346Z,10.05
2019-06-10T02:00:50.769Z,9.20
2019-06-10T02:03:24.011Z,8.93
2019-06-10T02:05:56.260Z,9.23
2019-06-10T02:08:31.375Z,9.30
2019-06-10T02:11:02.482Z,8.13
2019-06-10T02:13:34.489Z,8.95
2019-06-10T02:16:06.706Z,8.93
2019-06-10T02:18:42.245Z,9.48
2019-06-10T02:21:15.051Z,8.75
2019-06-10T02:23:47.603Z,8.48
2019-06-10T02:26:23.194Z,9.15
2019-06-10T02:28:53.816Z,9.50
2019-06-10T02:31:30.429Z,8.28
2019-06-10T02:34:02.604Z,8.18
2019-06-10T02:36:36.738Z,8.65
2019-06-10T02:39:13.356Z,8.43
2019-06-10T02:41:45.011Z,8.00
2019-06-10T02:44:21.794Z,9.55
2019-06-10T02:46:54.204Z,8.93
2019-06-10T02:49:47.030Z,8.55
2019-06-10T02:52:03.457Z,9.68
2019-06-10T02:54:35.992Z,8.28
2019-06-10T02:57:08.096Z,9.95
2019-06-10T02:59:43.421Z,10.13
2019-06-10T03:02:15.669Z,10.45
2019-06-10T03:04:47.854Z,9.60
2019-06-10T03:07:21.153Z,9.83
2019-06-10T03:09:54.011Z,9.43
2019-06-10T03:12:28.198Z,9.90
2019-06-10T03:15:02.126Z,10.60
2019-06-10T03:17:35.267Z,10.13
2019-06-10T03:20:07.485Z,10.82
2019-06-10T03:22:42.134Z,10.82
2019-06-10T03:25:13.315Z,9.08
2019-06-10T03:27:45.369Z,8.25
2019-06-10T03:30:28.603Z,7.37
2019-06-10T03:32:51.151Z,7.58
2019-06-10T03:35:26.560Z,6.67
2019-06-10T03:37:58.088Z,6.60
2019-06-10T03:40:30.038Z,7.28
2019-06-10T03:43:02.593Z,7.22
2019-06-10T03:45:34.814Z,5.97
2019-06-10T03:48:06.892Z,7.10
2019-06-10T03:50:38.965Z,6.40
2019-06-10T03:53:12.890Z,6.10
2019-06-10T03:55:44.760Z,6.35
2019-06-10T03:58:17.835Z,6.90
2019-06-10T04:00:52.083Z,6.97
2019-06-10T04:03:24.819Z,6.42
2019-06-10T04:05:57.700Z,5.80
2019-06-10T04:08:29.881Z,6.70
2019-06-10T04:11:02.850Z,6.50
2019-06-10T04:13:36.303Z,5.97
2019-06-10T04:16:08.275Z,5.90
2019-06-10T04:18:42.799Z,6.37
2019-06-10T04:21:14.076Z,6.47
2019-06-10T04:23:47.266Z,5.40
2019-06-10T04:26:19.759Z,5.33
2019-06-10T04:28:53.032Z,5.30
2019-06-10T04:31:26.538Z,7.58
2019-06-10T04:33:59.053Z,6.35
2019-06-10T04:36:33.341Z,5.00
2019-06-10T04:39:06.777Z,5.53
2019-06-10T04:41:38.761Z,5.30
2019-06-10T04:44:12.970Z,5.30
2019-06-10T04:46:44.699Z,5.30
2019-06-10T04:49:16.659Z,5.75
2019-06-10T04:51:48.693Z,5.33
2019-06-10T04:54:23.414Z,5.08
2019-06-10T04:56:54.779Z,5.58
2019-06-10T04:59:30.094Z,5.42
2019-06-10T05:02:02.747Z,6.15
2019-06-10T05:04:35.234Z,5.60
2019-06-10T05:07:07.221Z,5.55
2019-06-10T05:09:42.099Z,6.10
2019-06-10T05:12:13.356Z,5.78
2019-06-10T05:14:45.413Z,6.10
2019-06-10T05:17:24.284Z,6.05
2019-06-10T05:20:03.230Z,6.28
2019-06-10T05:26:03.130Z,6.17
2019-06-10T05:28:36.241Z,5.42
2019-06-10T05:31:08.248Z,5.97
2019-06-10T05:33:42.498Z,5.50
2019-06-10T05:36:14.120Z,5.50
2019-06-10T05:38:46.206Z,5.42
2019-06-10T05:41:18.283Z,5.17
2019-06-10T05:43:52.344Z,5.22
2019-06-10T05:46:25.496Z,5.22
2019-06-10T05:48:57.853Z,5.35
2019-06-10T05:51:31.346Z,5.15
2019-06-10T05:54:03.513Z,6.47
2019-06-10T05:56:36.473Z,5.30
2019-06-10T05:59:08.470Z,6.20
2019-06-10T06:01:43.174Z,5.92
2019-06-10T06:04:14.493Z,5.83
2019-06-10T06:06:46.694Z,5.37
2019-06-10T06:09:18.975Z,5.50
2019-06-10T06:11:52.359Z,4.95
2019-06-10T06:14:25.467Z,5.60
2019-06-10T06:16:57.520Z,5.70
2019-06-10T06:19:30.810Z,5.12
2019-06-10T06:22:03.646Z,5.00
2019-06-10T06:24:35.775Z,5.10
2019-06-10T06:27:07.800Z,5.20
2019-06-10T06:29:39.812Z,5.58
2019-06-10T06:32:13.214Z,5.40
2019-06-10T06:34:45.381Z,5.40
2019-06-10T06:37:17.619Z,5.10
2019-06-10T06:39:52.180Z,5.22
2019-06-10T06:42:23.980Z,5.37
2019-06-10T06:44:56.068Z,5.20
2019-06-10T06:47:29.838Z,5.45
2019-06-10T06:50:02.744Z,5.30
2019-06-10T06:53:04.846Z,5.53
2019-06-10T06:55:09.938Z,5.20
2019-06-10T06:57:43.362Z,5.60
2019-06-10T07:00:38.715Z,5.28
2019-06-10T07:02:49.819Z,6.03
2019-06-10T07:05:22.954Z,5.22
2019-06-10T07:07:55.171Z,4.92
2019-06-10T07:10:27.357Z,5.72
2019-06-10T07:13:02.722Z,5.33
2019-06-10T07:15:47.465Z,5.33
2019-06-10T07:18:19.897Z,5.28
2019-06-10T07:20:54.049Z,5.12
2019-06-10T07:23:26.490Z,4.83
2019-06-10T07:25:58.505Z,5.03
2019-06-10T07:28:33.977Z,4.75
2019-06-10T07:31:19.510Z,5.62
2019-06-10T07:33:40.901Z,5.30
2019-06-10T07:36:13.206Z,5.62
2019-06-10T07:38:48.699Z,5.53
2019-06-10T07:41:19.579Z,4.85
2019-06-10T07:43:52.820Z,4.97
2019-06-10T07:46:25.207Z,4.90
2019-06-10T07:48:57.189Z,5.00
2019-06-10T07:51:29.158Z,4.95
2019-06-10T07:54:03.299Z,5.28
2019-06-10T07:56:40.353Z,5.42
2019-06-10T07:59:12.851Z,5.25
2019-06-10T08:01:50.916Z,5.17
2019-06-10T08:04:17.940Z,5.50
2019-06-10T08:06:52.782Z,5.00
2019-06-10T08:09:23.696Z,4.72
2019-06-10T08:11:55.686Z,4.83
2019-06-10T08:14:27.635Z,4.47
2019-06-10T08:16:59.617Z,3.80
2019-06-10T08:19:38.712Z,3.87
2019-06-10T08:22:09.370Z,4.62
2019-06-10T08:24:45.389Z,4.28
2019-06-10T08:27:22.787Z,4.42
2019-06-10T08:30:18.619Z,4.00
2019-06-10T08:32:49.008Z,4.12
2019-06-10T08:35:35.841Z,3.87
2019-06-10T08:37:54.408Z,4.47
2019-06-10T08:40:26.471Z,4.37
2019-06-10T08:42:58.683Z,4.28
2019-06-10T08:45:33.147Z,4.53
2019-06-10T08:48:04.722Z,4.17
2019-06-10T08:50:37.609Z,4.00
2019-06-10T08:53:18.415Z,4.17
2019-06-10T08:56:17.503Z,3.87
2019-06-10T08:58:51.610Z,3.98
2019-06-10T09:01:23.362Z,3.95
2019-06-10T09:03:55.373Z,4.35
2019-06-10T09:06:27.422Z,4.20
2019-06-10T09:08:59.614Z,3.80
2019-06-10T09:11:34.536Z,4.20
2019-06-10T09:14:06.662Z,4.80
2019-06-10T09:16:40.012Z,3.70
2019-06-10T09:19:13.275Z,4.00
2019-06-10T09:21:51.305Z,3.85
2019-06-10T09:24:22.178Z,3.65
2019-06-10T09:26:55.191Z,3.98
2019-06-10T09:29:27.456Z,4.12
2019-06-10T09:32:04.185Z,4.33
2019-06-10T09:34:36.238Z,4.25
2019-06-10T09:37:12.482Z,3.85
2019-06-10T09:39:51.849Z,4.15
2019-06-10T09:42:19.878Z,4.17
2019-06-10T09:45:09.822Z,4.00
2019-06-10T09:47:50.358Z,4.67
2019-06-10T09:51:07.314Z,3.50
2019-06-10T09:53:42.737Z,4.47
2019-06-10T10:00:07.872Z,3.80
2019-06-10T10:02:52.609Z,4.00
2019-06-10T10:05:26.573Z,3.60
2019-06-10T10:07:59.605Z,4.12
2019-06-10T10:10:37.059Z,4.15
2019-06-10T10:13:13.747Z,3.60
2019-06-10T10:15:45.734Z,3.60
2019-06-10T10:18:18.631Z,3.60
2019-06-10T10:20:52.728Z,4.12
2019-06-10T10:23:24.611Z,3.62
2019-06-10T10:25:57.211Z,3.83
2019-06-10T10:28:33.200Z,3.62
2019-06-10T10:31:04.775Z,4.33
2019-06-10T10:33:37.033Z,3.80
2019-06-10T10:36:09.149Z,3.83
2019-06-10T10:38:42.436Z,3.30
2019-06-10T10:41:14.846Z,3.60
2019-06-10T10:43:48.891Z,3.47
2019-06-10T10:46:23.104Z,3.52
2019-06-10T10:48:56.479Z,3.83
2019-06-10T10:51:28.002Z,3.55
2019-06-10T10:54:21.033Z,3.70
2019-06-10T10:56:34.105Z,4.05
2019-06-10T10:59:06.322Z,3.45
2019-06-10T11:01:38.321Z,3.70
2019-06-10T11:04:13.034Z,3.33
2019-06-10T11:06:44.905Z,3.10
2019-06-10T11:09:17.813Z,3.87
2019-06-10T11:11:52.226Z,3.47
2019-06-10T11:14:23.563Z,3.58
2019-06-10T11:16:58.463Z,3.42
2019-06-10T11:19:29.464Z,3.50
2019-06-10T11:22:03.088Z,3.58
2019-06-10T11:24:40.855Z,3.77
2019-06-10T11:27:12.607Z,3.90
2019-06-10T11:29:43.955Z,3.40
2019-06-10T11:32:16.038Z,3.30
2019-06-10T11:34:58.855Z,3.72
2019-06-10T11:44:59.941Z,3.65
2019-06-10T11:47:42.496Z,3.40
2019-06-10T11:50:16.786Z,3.47
2019-06-10T11:53:04.239Z,3.25
2019-06-10T11:55:49.540Z,3.37
2019-06-10T11:58:18.180Z,3.50
2019-06-10T12:01:08.988Z,3.30
2019-06-10T12:06:33.957Z,3.92
2019-06-10T12:09:09.538Z,3.70
2019-06-10T12:11:43.752Z,3.70
2019-06-10T12:14:16.598Z,3.65
2019-06-10T12:17:17.474Z,3.83
2019-06-10T12:19:23.861Z,3.80
2019-06-10T12:21:59.691Z,3.83
2019-06-10T12:24:32.855Z,3.60
2019-06-10T12:27:05.120Z,3.87
2019-06-10T12:29:38.740Z,3.90
2019-06-10T12:32:13.334Z,3.87
2019-06-10T12:34:46.289Z,3.80
2019-06-10T12:37:18.414Z,3.65
2019-06-10T12:39:52.959Z,3.58
2019-06-10T12:42:24.239Z,3.55
2019-06-10T12:44:57.685Z,4.17
2019-06-10T12:47:30.181Z,4.10
2019-06-10T12:50:04.154Z,4.37
2019-06-10T12:52:35.937Z,3.72
2019-06-10T12:55:08.840Z,3.80
2019-06-10T12:57:42.837Z,3.87
2019-06-10T13:00:22.658Z,3.85
2019-06-10T13:02:50.352Z,3.90
2019-06-10T13:05:22.869Z,4.35
2019-06-10T13:07:55.502Z,3.90
2019-06-10T13:10:39.486Z,3.52
2019-06-10T13:13:13.111Z,3.47
2019-06-10T13:15:45.180Z,3.42
2019-06-10T13:18:26.541Z,3.67
2019-06-10T13:21:17.816Z,3.67
2019-06-10T13:58:34.811Z,4.10
2019-06-10T14:01:21.467Z,4.00
2019-06-10T14:04:09.753Z,3.75
2019-06-10T14:09:25.191Z,4.10
2019-06-10T14:11:57.271Z,4.12
2019-06-10T14:14:35.330Z,3.72
2019-06-10T14:17:07.456Z,3.95
2019-06-10T14:19:43.263Z,3.95
2019-06-10T14:22:16.066Z,3.98
2019-06-10T14:24:53.049Z,4.15
2019-06-10T14:27:25.663Z,3.95
2019-06-10T14:29:57.697Z,3.92
2019-06-10T14:32:29.865Z,4.08
2019-06-10T14:35:01.948Z,3.80
2019-06-10T14:37:39.063Z,3.90
2019-06-10T14:40:08.888Z,4.12
2019-06-10T14:42:42.920Z,4.40
2019-06-10T14:45:17.658Z,4.03
2019-06-10T14:47:54.236Z,4.05
2019-06-10T14:50:26.546Z,3.80
2019-06-10T14:52:58.555Z,4.17
2019-06-10T14:55:34.047Z,4.12
2019-06-10T14:58:07.463Z,4.25
2019-06-10T15:00:45.415Z,3.58
2019-06-10T15:03:19.628Z,4.70
2019-06-10T15:05:49.621Z,4.10
2019-06-10T15:08:23.074Z,4.03
2019-06-10T15:10:55.505Z,4.35
2019-06-10T15:13:27.503Z,4.10
2019-06-10T15:15:59.615Z,4.33
2019-06-10T15:18:33.119Z,4.20
2019-06-10T15:21:05.228Z,4.20
2019-06-10T15:23:38.221Z,5.20
2019-06-10T15:26:13.121Z,3.75
2019-06-10T15:28:44.022Z,4.22
2019-06-10T15:31:17.653Z,3.92
2019-06-10T15:33:52.254Z,4.22
2019-06-10T15:36:25.285Z,4.83
2019-06-10T15:38:57.469Z,4.33
2019-06-10T15:41:29.459Z,4.42
2019-06-10T15:44:02.578Z,4.40
2019-06-10T15:46:34.752Z,4.90
2019-06-10T15:49:07.849Z,4.10
2019-06-10T15:51:39.839Z,4.58
2019-06-10T15:54:14.017Z,4.80
2019-06-10T15:56:52.168Z,4.08
2019-06-10T15:59:19.844Z,4.37
2019-06-10T16:01:53.067Z,5.03
2019-06-10T16:04:29.509Z,5.03
2019-06-10T16:06:59.168Z,5.25
2019-06-10T16:09:32.163Z,5.00
2019-06-10T16:12:04.602Z,5.30
2019-06-10T16:14:42.479Z,5.50
2019-06-10T16:17:24.277Z,5.08
2019-06-10T16:20:03.759Z,4.75
2019-06-10T16:22:37.959Z,4.55
2019-06-10T16:25:12.550Z,5.70
2019-06-10T16:27:54.456Z,6.37
2019-06-10T16:30:28.833Z,23.80
2019-06-10T16:33:05.417Z,14.25
2019-06-10T16:35:37.810Z,21.87
2019-06-10T16:38:12.583Z,12.18
2019-06-10T16:40:44.176Z,11.50
2019-06-10T16:43:17.687Z,7.20
2019-06-10T16:45:52.614Z,8.88
2019-06-10T16:48:25.553Z,6.60
2019-06-10T16:50:59.059Z,6.80
2019-06-10T16:53:35.212Z,7.83
2019-06-10T16:56:05.256Z,6.30
2019-06-10T16:58:37.618Z,7.15
2019-06-10T17:01:12.435Z,6.20
2019-06-10T17:03:55.341Z,7.25
2019-06-10T17:06:32.730Z,6.72
2019-06-10T17:09:13.836Z,6.40
2019-06-10T17:11:52.937Z,7.83
2019-06-10T17:14:28.086Z,6.25
2019-06-10T17:17:16.228Z,7.15
2019-06-10T17:19:51.989Z,9.53
2019-06-10T17:32:26.764Z,7.60
2019-06-10T17:35:02.332Z,7.40
2019-06-10T17:37:34.773Z,7.65
2019-06-10T17:40:10.021Z,7.58
2019-06-10T17:42:42.834Z,7.53
2019-06-10T17:45:15.239Z,7.75
2019-06-10T17:47:48.588Z,8.08
2019-06-10T17:50:22.309Z,8.35
2019-06-10T17:52:54.978Z,8.95
2019-06-10T17:55:28.152Z,9.65
2019-06-10T17:58:02.921Z,9.03
2019-06-10T18:00:36.304Z,10.63
2019-06-10T18:03:09.788Z,11.45
2019-06-10T18:05:42.678Z,12.10
2019-06-10T18:08:15.147Z,14.60
2019-06-10T18:10:49.089Z,19.90
2019-06-10T18:13:22.836Z,18.45
2019-06-10T18:15:55.551Z,19.45
2019-06-10T18:18:28.368Z,28.77
2019-06-10T18:21:03.173Z,52.70
2019-06-10T18:23:35.402Z,30.25
2019-06-10T18:26:07.868Z,24.87
2019-06-10T18:28:59.818Z,19.62
2019-06-10T18:31:23.235Z,13.40
2019-06-10T18:33:56.880Z,11.43
2019-06-10T18:36:33.103Z,11.03
2019-06-10T18:39:07.884Z,9.13
2019-06-10T18:41:47.936Z,8.93
2019-06-10T18:44:24.154Z,8.20
2019-06-10T18:46:54.876Z,9.25
2019-06-10T18:49:28.176Z,22.17
2019-06-10T18:52:00.542Z,15.60
2019-06-10T18:54:34.430Z,11.78
2019-06-10T18:57:06.829Z,23.60
2019-06-10T18:59:39.629Z,12.10
2019-06-10T19:02:23.327Z,8.78
2019-06-10T19:04:55.802Z,83.25
2019-06-10T19:07:33.487Z,46.05
2019-06-10T19:10:07.381Z,14.95
2019-06-10T19:12:42.355Z,9.70
2019-06-10T19:15:14.809Z,9.08
2019-06-10T19:17:47.402Z,8.73
2019-06-10T19:20:19.769Z,8.75
2019-06-10T19:22:52.724Z,8.50
2019-06-10T19:25:25.241Z,8.10
2019-06-10T19:28:00.808Z,8.48
2019-06-10T19:30:38.792Z,35.75
2019-06-10T19:33:24.498Z,24.20
2019-06-10T19:36:41.930Z,18.52
2019-06-10T19:39:43.510Z,14.05
2019-06-10T19:42:26.228Z,9.13
2019-06-10T19:45:38.416Z,8.43
2019-06-10T19:48:39.918Z,8.58
2019-06-10T20:05:47.820Z,13.90
2019-06-10T20:22:43.154Z,9.55
2019-06-10T20:29:00.484Z,74.90
2019-06-10T20:31:33.111Z,20.62
2019-06-10T20:34:05.560Z,571.25
2019-06-10T20:36:37.915Z,497.77
2019-06-10T20:39:10.332Z,190.62
2019-06-10T20:41:47.288Z,40.40
2019-06-10T20:44:17.646Z,23.40
2019-06-10T20:46:52.707Z,18.82
2019-06-10T20:49:25.889Z,32.40
2019-06-10T20:52:10.877Z,21.20
2019-06-10T20:54:36.016Z,14.73
2019-06-10T20:57:12.143Z,14.83
2019-06-10T20:59:46.534Z,11.95
2019-06-10T21:02:18.993Z,11.70
2019-06-10T21:04:53.174Z,13.88
2019-06-10T21:07:25.881Z,13.75
2019-06-10T21:10:02.799Z,12.85
2019-06-10T21:12:35.209Z,39.03
2019-06-10T21:15:12.584Z,30.70
2019-06-10T21:17:49.275Z,35.52
2019-06-10T21:20:23.465Z,34.35
2019-06-10T21:22:55.860Z,55.70
2019-06-10T21:25:32.426Z,61.77
2019-06-10T21:28:06.064Z,37.63
2019-06-10T21:30:45.905Z,51.60
2019-06-10T21:33:15.450Z,34.78
2019-06-10T21:35:54.815Z,26.05
2019-06-10T21:38:29.075Z,21.12
2019-06-10T21:41:03.347Z,17.75
2019-06-10T21:43:41.291Z,18.07
2019-06-10T21:46:13.147Z,15.63
2019-06-10T21:48:48.971Z,16.73
2019-06-10T21:51:24.187Z,15.20
2019-06-10T21:53:58.154Z,12.53
2019-06-10T21:56:39.153Z,14.55
2019-06-10T21:59:12.635Z,15.13
2019-06-10T22:01:51.250Z,11.18
2019-06-10T22:04:23.836Z,11.95
2019-06-10T22:06:58.891Z,11.53
2019-06-10T22:09:31.460Z,11.78
2019-06-10T22:12:04.049Z,13.20
2019-06-10T22:14:39.149Z,12.63
2019-06-10T22:17:14.427Z,12.85
2019-06-10T22:19:48.582Z,11.50
2019-06-10T22:22:21.158Z,11.88
2019-06-10T22:25:02.925Z,12.03
2019-06-10T22:27:37.448Z,11.30
2019-06-10T22:30:11.566Z,11.20
2019-06-10T22:32:45.260Z,11.68
2019-06-10T22:35:17.816Z,11.65
2019-06-10T22:37:56.410Z,11.88
2019-06-10T22:40:29.157Z,12.28
2019-06-10T22:43:03.695Z,12.23
2019-06-10T22:45:42.471Z,11.60
2019-06-10T22:48:15.655Z,11.60
2019-06-10T22:50:49.653Z,11.85
2019-06-10T22:53:26.726Z,12.10
2019-06-10T22:56:12.349Z,11.90
2019-06-10T22:58:47.629Z,12.70
2019-06-10T23:01:33.620Z,11.85
2019-06-10T23:03:57.391Z,12.10
2019-06-10T23:06:37.849Z,12.63
2019-06-10T23:09:18.205Z,12.00
2019-06-10T23:12:00.141Z,11.95
2019-06-10T23:14:36.464Z,12.50
2019-06-10T23:17:14.555Z,12.75
2019-06-10T23:19:53.939Z,26.80
2019-06-10T23:22:29.274Z,17.73
2019-06-10T23:25:06.709Z,17.20
2019-06-10T23:27:44.353Z,13.05
2019-06-10T23:30:22.886Z,11.70
2019-06-10T23:33:00.828Z,13.22
2019-06-10T23:35:33.865Z,13.03
2019-06-10T23:38:13.161Z,13.22
2019-06-10T23:40:46.898Z,12.85
2019-06-10T23:43:22.643Z,11.78
2019-06-10T23:46:22.851Z,13.78
2019-06-10T23:48:59.584Z,13.88
2019-06-10T23:51:38.450Z,13.68
2019-06-10T23:54:19.101Z,12.63
2019-06-10T23:56:56.624Z,12.30
2019-06-10T23:59:38.123Z,12.78
